Time;durP1;ratioP1;P1;durP2;ratioP2;P2;SDS_P1;SDS_P2;PMS_P1;PMS_P2;Temp;Humidity;BMP_temperature;BMP_pressure;BME280_temperature;BME280_humidity;BME280_pressure;Samples;Min_cycle;Max_cycle;Signal;HPM_P1;HPM_P2
2024/02/11 00:00:39;;;;;;;8.95;5.00;;;13.60;73.10;;;;;;5067995;28;20383;-68
2024/02/11 00:03:07;;;;;;;21.05;5.18;;;13.60;73.50;;;;;;5052866;28;20051;-69
2024/02/11 00:05:35;;;;;;;9.65;5.15;;;13.50;73.50;;;;;;5070473;28;20155;-69
2024/02/11 00:08:02;;;;;;;8.48;4.53;;;13.60;73.00;;;;;;5055237;28;20033;-70
2024/02/11 00:10:29;;;;;;;9.25;4.32;;;13.70;72.70;;;;;;5064146;28;20055;-71
2024/02/11 00:12:57;;;;;;;7.65;4.68;;;13.60;72.90;;;;;;5069545;28;20036;-70
2024/02/11 00:15:25;;;;;;;8.43;4.80;;;13.70;72.70;;;;;;5067711;28;20117;-70
2024/02/11 00:17:54;;;;;;;17.02;4.45;;;13.70;72.60;;;;;;5055596;28;20048;-71
2024/02/11 00:20:21;;;;;;;9.77;4.82;;;13.70;72.70;;;;;;5036713;28;20456;-68
2024/02/11 00:22:49;;;;;;;9.13;4.78;;;13.70;73.20;;;;;;5061007;28;20041;-69
2024/02/11 00:25:16;;;;;;;9.13;4.78;;;13.60;73.30;;;;;;5065640;28;20041;-68
2024/02/11 00:27:49;;;;;;;7.15;4.68;;;13.60;73.20;;;;;;5067132;28;20040;-70
2024/02/11 00:30:17;;;;;;;7.10;4.65;;;13.60;73.20;;;;;;5061519;28;20431;-68
2024/02/11 00:32:46;;;;;;;7.88;4.72;;;13.60;73.40;;;;;;5057032;28;20040;-68
2024/02/11 00:35:18;;;;;;;7.05;4.72;;;13.60;73.60;;;;;;5074062;28;20043;-68
2024/02/11 00:37:46;;;;;;;12.48;5.03;;;13.60;74.00;;;;;;5067872;28;20062;-70
2024/02/11 00:40:14;;;;;;;8.60;4.85;;;13.60;73.40;;;;;;5073381;28;20051;-70
2024/02/11 00:42:42;;;;;;;6.68;4.72;;;13.60;73.70;;;;;;5072674;28;20443;-72
2024/02/11 00:45:12;;;;;;;7.55;4.72;;;13.50;74.10;;;;;;5076346;28;20028;-69
2024/02/11 00:47:41;;;;;;;9.77;4.80;;;13.50;74.50;;;;;;5061613;28;20395;-71
2024/02/11 00:50:13;;;;;;;7.53;4.95;;;13.50;74.60;;;;;;5060024;28;20111;-68
2024/02/11 00:52:41;;;;;;;5.88;4.50;;;13.40;75.00;;;;;;5073126;28;20035;-69
2024/02/11 00:55:14;;;;;;;6.72;5.13;;;13.30;75.60;;;;;;5073382;28;20468;-68
2024/02/11 00:57:41;;;;;;;6.93;4.82;;;13.20;76.40;;;;;;5072933;28;20070;-71
2024/02/11 01:00:09;;;;;;;8.18;5.32;;;13.20;76.90;;;;;;5072748;28;20453;-71
2024/02/11 01:02:40;;;;;;;9.48;5.30;;;13.10;77.50;;;;;;5073394;28;20046;-69
2024/02/11 01:05:07;;;;;;;;;;;13.20;77.40;;;;;;5073665;28;20086;-69
2024/02/11 01:07:41;;;;;;;8.32;5.40;;;13.10;77.40;;;;;;5073177;28;20019;-70
2024/02/11 01:10:13;;;;;;;6.90;4.68;;;13.00;78.20;;;;;;5072956;28;20147;-68
2024/02/11 01:12:41;;;;;;;8.45;5.00;;;12.90;78.40;;;;;;5073055;28;20047;-69
2024/02/11 01:15:13;;;;;;;7.32;4.93;;;13.00;78.30;;;;;;5073155;28;20028;-69
2024/02/11 01:17:41;;;;;;;9.68;5.10;;;13.00;78.20;;;;;;5054375;28;20090;-70
2024/02/11 01:20:10;;;;;;;6.95;5.00;;;13.00;78.40;;;;;;5071982;28;20040;-68
2024/02/11 01:22:38;;;;;;;7.78;5.20;;;13.00;78.70;;;;;;5060146;28;20372;-70
2024/02/11 01:25:06;;;;;;;9.52;5.38;;;13.00;78.70;;;;;;5060383;28;20121;-69
2024/02/11 01:27:33;;;;;;;8.23;5.60;;;12.90;78.60;;;;;;5058671;28;20439;-71
2024/02/11 01:30:01;;;;;;;8.85;5.57;;;12.90;78.70;;;;;;5053167;28;20029;-69
2024/02/11 01:32:28;;;;;;;9.40;5.60;;;12.90;78.70;;;;;;5066760;28;20043;-69
2024/02/11 01:34:55;;;;;;;12.68;5.03;;;12.90;78.80;;;;;;5072658;28;20040;-68
2024/02/11 01:37:23;;;;;;;8.10;4.93;;;13.00;78.80;;;;;;5070638;28;20032;-70
2024/02/11 01:39:50;;;;;;;7.38;4.38;;;12.90;79.00;;;;;;5071337;28;20032;-70
2024/02/11 01:42:17;;;;;;;7.45;4.63;;;12.90;78.90;;;;;;5069416;28;20064;-71
2024/02/11 01:44:44;;;;;;;9.93;4.97;;;12.90;78.80;;;;;;5052093;28;20033;-70
2024/02/11 01:47:11;;;;;;;7.18;5.20;;;12.90;78.60;;;;;;5063271;28;20087;-67
2024/02/11 01:49:39;;;;;;;7.60;4.70;;;12.90;79.00;;;;;;5066572;28;20638;-69
2024/02/11 01:52:07;;;;;;;6.38;4.72;;;12.90;78.90;;;;;;5067695;28;20127;-69
2024/02/11 01:54:35;;;;;;;7.82;5.18;;;12.80;79.00;;;;;;5066817;28;20041;-69
2024/02/11 01:57:02;;;;;;;14.15;4.88;;;12.80;79.20;;;;;;5067622;28;20056;-69
2024/02/11 01:59:36;;;;;;;9.98;4.85;;;12.80;78.80;;;;;;5071170;28;20052;-70
2024/02/11 02:02:09;;;;;;;8.98;4.68;;;12.90;78.90;;;;;;5065788;28;20376;-68
2024/02/11 02:04:37;;;;;;;8.00;4.90;;;12.90;78.70;;;;;;5061292;28;20036;-69
2024/02/11 02:07:05;;;;;;;5.72;4.75;;;12.90;78.60;;;;;;5061691;28;20029;-68
2024/02/11 02:09:32;;;;;;;8.80;5.70;;;12.90;78.40;;;;;;5059606;28;20125;-69
2024/02/11 02:12:04;;;;;;;9.63;5.38;;;12.90;78.20;;;;;;5058860;28;20033;-68
2024/02/11 02:14:31;;;;;;;10.40;5.53;;;12.90;78.40;;;;;;5041018;28;20048;-69
2024/02/11 02:16:58;;;;;;;7.20;4.50;;;12.90;78.40;;;;;;5060244;28;20052;-69
2024/02/11 02:19:27;;;;;;;9.05;4.65;;;12.90;77.80;;;;;;5062313;28;20059;-69
2024/02/11 02:21:56;;;;;;;9.00;6.03;;;12.90;78.00;;;;;;5055653;28;20043;-69
2024/02/11 02:24:23;;;;;;;8.73;4.40;;;12.90;77.70;;;;;;5059648;28;20043;-69
2024/02/11 02:26:50;;;;;;;7.25;4.45;;;13.00;76.70;;;;;;5069760;28;20028;-70
2024/02/11 02:29:18;;;;;;;7.47;4.50;;;13.10;76.30;;;;;;5059950;28;20063;-70
2024/02/11 02:31:45;;;;;;;10.45;4.60;;;13.10;75.60;;;;;;5060460;28;20036;-69
2024/02/11 02:34:12;;;;;;;8.77;4.63;;;13.20;75.10;;;;;;5042814;28;20043;-68
2024/02/11 02:36:40;;;;;;;6.57;4.10;;;13.40;73.10;;;;;;5055931;28;20032;-68
2024/02/11 02:39:13;;;;;;;6.13;4.60;;;13.80;71.10;;;;;;5054844;28;20153;-67
2024/02/11 02:41:40;;;;;;;7.65;4.82;;;13.80;71.50;;;;;;5057596;28;20047;-69
2024/02/11 02:44:07;;;;;;;8.77;4.32;;;13.90;70.80;;;;;;5062739;28;20438;-69
2024/02/11 02:46:35;;;;;;;10.07;4.57;;;13.90;71.60;;;;;;5065016;28;20060;-68
2024/02/11 02:49:02;;;;;;;8.80;4.57;;;13.90;71.60;;;;;;5070817;28;20032;-68
2024/02/11 02:51:31;;;;;;;7.78;4.75;;;13.90;71.60;;;;;;5071412;28;20044;-68
2024/02/11 02:53:58;;;;;;;9.88;4.57;;;13.90;71.90;;;;;;5063252;28;20180;-69
2024/02/11 02:56:27;;;;;;;8.05;4.85;;;13.80;72.20;;;;;;5071349;28;20090;-69
2024/02/11 02:58:54;;;;;;;7.53;4.53;;;13.90;72.10;;;;;;5070520;28;20115;-69
2024/02/11 03:01:29;;;;;;;6.50;4.57;;;13.90;72.60;;;;;;5061135;28;20122;-68
2024/02/11 03:04:00;;;;;;;8.98;4.82;;;13.70;73.10;;;;;;5059944;28;20060;-69
2024/02/11 03:06:28;;;;;;;11.45;4.63;;;13.70;74.10;;;;;;5067533;28;20052;-67
2024/02/11 03:08:56;;;;;;;9.00;4.60;;;13.60;73.90;;;;;;5063657;28;20538;-70
2024/02/11 03:11:23;;;;;;;7.72;4.70;;;13.70;74.10;;;;;;5071326;28;20032;-69
2024/02/11 03:13:50;;;;;;;7.97;4.45;;;13.60;74.50;;;;;;5070403;28;20036;-69
2024/02/11 03:16:17;;;;;;;6.45;4.60;;;13.70;74.10;;;;;;5070827;28;20115;-69
2024/02/11 03:18:45;;;;;;;7.80;4.57;;;13.70;73.90;;;;;;5064608;28;20050;-68
2024/02/11 03:21:15;;;;;;;9.23;4.90;;;13.80;73.80;;;;;;5065166;28;20097;-68
2024/02/11 03:23:42;;;;;;;6.72;4.82;;;13.70;73.80;;;;;;5065792;28;20044;-68
2024/02/11 03:26:12;;;;;;;9.55;5.20;;;13.80;73.60;;;;;;5065744;28;20037;-68
2024/02/11 03:28:40;;;;;;;7.18;4.82;;;13.80;73.60;;;;;;5066932;28;20036;-69
2024/02/11 03:31:08;;;;;;;7.03;4.88;;;13.80;73.70;;;;;;5063996;28;20036;-70
2024/02/11 03:33:35;;;;;;;7.15;4.70;;;13.80;73.80;;;;;;5071509;28;20039;-68
2024/02/11 03:36:03;;;;;;;5.68;4.32;;;13.70;74.10;;;;;;5067223;28;20465;-68
2024/02/11 03:38:30;;;;;;;8.70;4.93;;;13.70;73.80;;;;;;5067355;28;20395;-69
2024/02/11 03:40:58;;;;;;;8.63;4.35;;;13.80;73.80;;;;;;5063120;28;20044;-69
2024/02/11 03:43:25;;;;;;;8.23;5.07;;;13.70;73.50;;;;;;5074762;28;20399;-69
2024/02/11 03:45:53;;;;;;;8.93;5.15;;;13.70;73.40;;;;;;5072022;28;20039;-68
2024/02/11 03:48:20;;;;;;;6.57;4.70;;;13.80;73.40;;;;;;5074724;28;20044;-70
2024/02/11 03:50:47;;;;;;;8.13;4.63;;;13.80;73.50;;;;;;5074588;28;20060;-69
2024/02/11 03:53:15;;;;;;;7.63;4.40;;;13.80;73.50;;;;;;5056131;28;20548;-68
2024/02/11 03:55:42;;;;;;;11.48;4.82;;;13.70;73.80;;;;;;5074402;28;20375;-68
2024/02/11 03:58:10;;;;;;;7.53;4.47;;;13.80;73.50;;;;;;5054643;28;20041;-68
2024/02/11 04:00:37;;;;;;;8.27;4.68;;;13.80;73.50;;;;;;5054329;28;20037;-68
2024/02/11 04:03:09;;;;;;;10.55;4.70;;;13.80;73.10;;;;;;5053922;28;20041;-69
2024/02/11 04:05:39;;;;;;;8.25;4.85;;;13.80;73.30;;;;;;5053506;28;20033;-68
2024/02/11 04:08:08;;;;;;;9.45;4.50;;;13.80;73.20;;;;;;5054650;28;20124;-69
2024/02/11 04:10:36;;;;;;;6.32;4.50;;;13.80;73.20;;;;;;5041352;28;20416;-69
2024/02/11 04:13:04;;;;;;;6.57;4.57;;;13.80;72.80;;;;;;5054166;28;20033;-69
2024/02/11 04:15:31;;;;;;;6.03;4.28;;;13.80;73.00;;;;;;5054683;28;20041;-67
2024/02/11 04:18:07;;;;;;;8.02;4.57;;;13.80;72.80;;;;;;5036092;28;20072;-69
2024/02/11 04:20:35;;;;;;;8.82;4.55;;;13.90;72.70;;;;;;5054184;28;20036;-70
2024/02/11 04:23:03;;;;;;;8.70;4.30;;;13.90;72.60;;;;;;5054178;28;20116;-69
2024/02/11 04:25:34;;;;;;;7.35;4.47;;;13.90;72.20;;;;;;5054286;28;20037;-68
2024/02/11 04:28:07;;;;;;;8.27;4.20;;;13.90;72.30;;;;;;5053700;28;20041;-68
2024/02/11 04:30:42;;;;;;;7.05;4.57;;;13.90;72.50;;;;;;5054069;28;20029;-68
2024/02/11 04:33:14;;;;;;;7.85;4.15;;;13.90;72.60;;;;;;5036619;28;20021;-69
2024/02/11 04:35:42;;;;;;;8.82;4.65;;;13.90;72.80;;;;;;5053544;28;20396;-68
2024/02/11 04:38:12;;;;;;;7.80;4.45;;;13.90;72.90;;;;;;5053781;28;20115;-69
2024/02/11 04:40:41;;;;;;;9.05;4.53;;;13.90;72.80;;;;;;5056795;28;20032;-68
2024/02/11 04:43:09;;;;;;;10.02;4.55;;;13.90;72.80;;;;;;5045671;28;20065;-69
2024/02/11 04:45:37;;;;;;;6.75;4.72;;;13.90;72.60;;;;;;5053942;28;20041;-68
2024/02/11 04:48:06;;;;;;;7.00;5.45;;;13.90;72.80;;;;;;5061864;28;20060;-69
2024/02/11 04:50:37;;;;;;;9.75;4.65;;;13.80;72.80;;;;;;5053309;28;20119;-67
2024/02/11 04:53:08;;;;;;;9.45;4.53;;;13.80;72.90;;;;;;5053672;28;20079;-68
2024/02/11 04:55:43;;;;;;;7.72;4.20;;;13.80;73.00;;;;;;5040595;28;20029;-71
2024/02/11 04:58:16;;;;;;;7.15;4.68;;;13.80;73.30;;;;;;5053543;28;20476;-69
2024/02/11 05:00:49;;;;;;;10.38;4.63;;;13.80;73.30;;;;;;5035757;28;20036;-70
2024/02/11 05:03:18;;;;;;;7.55;4.53;;;13.80;73.10;;;;;;5053429;28;20044;-69
2024/02/11 05:05:51;;;;;;;10.75;4.05;;;13.80;73.00;;;;;;5040841;28;20047;-68
2024/02/11 05:08:22;;;;;;;8.13;4.25;;;13.80;72.90;;;;;;5052860;28;20037;-69
2024/02/11 05:10:52;;;;;;;7.28;4.40;;;13.80;73.00;;;;;;5053651;28;20045;-70
2024/02/11 05:13:27;;;;;;;6.85;4.43;;;13.80;73.10;;;;;;5051804;28;20372;-69
2024/02/11 05:15:59;;;;;;;5.90;3.97;;;13.80;73.30;;;;;;5053276;28;20064;-70
2024/02/11 05:18:29;;;;;;;8.38;4.53;;;13.80;73.40;;;;;;5052585;28;20032;-70
2024/02/11 05:20:57;;;;;;;9.38;4.43;;;13.80;73.60;;;;;;5035577;28;20040;-69
2024/02/11 05:23:25;;;;;;;10.48;4.40;;;13.80;73.60;;;;;;5052937;28;20498;-70
2024/02/11 05:25:53;;;;;;;7.03;4.68;;;13.80;73.80;;;;;;5052933;28;20037;-70
2024/02/11 05:28:20;;;;;;;6.35;4.10;;;13.80;73.70;;;;;;5052943;28;20424;-69
2024/02/11 05:30:48;;;;;;;6.65;4.40;;;13.80;73.60;;;;;;5052925;28;20131;-69
2024/02/11 05:33:19;;;;;;;7.28;4.72;;;13.80;73.50;;;;;;5052972;28;20033;-69
2024/02/11 05:35:48;;;;;;;6.15;4.28;;;13.70;73.70;;;;;;5051856;28;20392;-69
2024/02/11 05:38:19;;;;;;;8.50;4.23;;;13.80;73.10;;;;;;5052727;28;20095;-69
2024/02/11 05:40:50;;;;;;;8.60;4.30;;;13.70;73.50;;;;;;5056523;28;20044;-69
2024/02/11 05:43:21;;;;;;;;;;;13.70;73.40;;;;;;5061767;28;20424;-69
2024/02/11 05:45:49;;;;;;;9.70;4.30;;;13.80;72.70;;;;;;5058415;28;19921;-69
2024/02/11 05:48:17;;;;;;;7.45;4.47;;;13.80;72.60;;;;;;5052538;28;20029;-70
2024/02/11 05:50:46;;;;;;;5.75;3.92;;;13.70;72.80;;;;;;5039570;28;20132;-70
2024/02/11 05:53:15;;;;;;;6.50;4.03;;;13.90;72.20;;;;;;5052203;28;20376;-70
2024/02/11 05:55:42;;;;;;;5.97;4.20;;;13.90;72.30;;;;;;5052256;28;20040;-69
2024/02/11 05:58:09;;;;;;;6.03;4.38;;;13.90;72.20;;;;;;5043727;28;20037;-70
2024/02/11 06:00:37;;;;;;;9.32;4.40;;;13.90;72.50;;;;;;5056561;28;20424;-69
2024/02/11 06:03:05;;;;;;;5.30;4.00;;;14.00;72.40;;;;;;5054564;28;20036;-69
2024/02/11 06:05:32;;;;;;;9.00;4.25;;;14.00;72.30;;;;;;5053774;28;20056;-70
2024/02/11 06:08:00;;;;;;;10.07;4.53;;;13.90;72.40;;;;;;5054513;28;20782;-69
2024/02/11 06:10:30;;;;;;;7.85;4.05;;;13.90;72.00;;;;;;5071553;28;20136;-70
2024/02/11 06:12:59;;;;;;;8.48;4.22;;;14.00;71.70;;;;;;5072111;28;20036;-71
2024/02/11 06:15:27;;;;;;;7.05;4.40;;;14.10;71.40;;;;;;5059347;28;20115;-68
2024/02/11 06:18:01;;;;;;;5.43;4.40;;;14.10;71.30;;;;;;5071156;28;20036;-69
2024/02/11 06:20:29;;;;;;;7.28;4.53;;;14.10;71.60;;;;;;5072072;28;20036;-69
2024/02/11 06:22:57;;;;;;;10.27;4.50;;;14.00;72.00;;;;;;5053819;28;20063;-70
2024/02/11 06:25:25;;;;;;;5.82;3.78;;;14.10;72.30;;;;;;5071635;28;20032;-70
2024/02/11 06:27:56;;;;;;;6.93;4.40;;;14.00;72.60;;;;;;5053834;28;20123;-71
2024/02/11 06:30:24;;;;;;;6.97;4.40;;;14.00;72.80;;;;;;5053521;28;20036;-69
2024/02/11 06:32:53;;;;;;;8.98;4.97;;;13.90;73.30;;;;;;5053960;28;20110;-69
2024/02/11 06:35:23;;;;;;;8.82;4.35;;;13.90;73.50;;;;;;5072001;28;20043;-68
2024/02/11 06:37:51;;;;;;;7.55;4.57;;;13.90;73.60;;;;;;5070524;28;20033;-70
2024/02/11 06:40:25;;;;;;;6.70;4.47;;;13.80;74.10;;;;;;5061183;28;20041;-69
2024/02/11 06:42:54;;;;;;;7.25;4.63;;;13.80;73.90;;;;;;5071724;28;20412;-70
2024/02/11 06:45:22;;;;;;;7.65;4.55;;;13.80;73.90;;;;;;5074692;28;20036;-69
2024/02/11 06:47:52;;;;;;;8.48;4.30;;;13.90;73.70;;;;;;5071777;28;20037;-71
2024/02/11 06:50:21;;;;;;;6.18;3.92;;;13.90;73.80;;;;;;5040356;28;20036;-70
2024/02/11 06:52:49;;;;;;;8.45;4.50;;;13.90;73.70;;;;;;5071175;28;20043;-70
2024/02/11 06:55:20;;;;;;;6.95;4.40;;;14.00;73.60;;;;;;5071357;28;20111;-70
2024/02/11 06:57:49;;;;;;;12.77;4.13;;;14.00;73.90;;;;;;5050890;28;20049;-71
2024/02/11 07:00:18;;;;;;;10.10;4.97;;;14.00;74.60;;;;;;5051426;28;20033;-74
2024/02/11 07:02:52;;;;;;;8.32;4.10;;;13.90;74.20;;;;;;5051538;28;20037;-70
2024/02/11 07:05:21;;;;;;;7.47;4.65;;;13.90;74.70;;;;;;5051388;28;20044;-70
2024/02/11 07:07:50;;;;;;;8.77;4.80;;;13.90;75.00;;;;;;5051438;28;20047;-70
2024/02/11 07:10:21;;;;;;;5.80;4.07;;;13.80;75.30;;;;;;5064281;28;20037;-69
2024/02/11 07:13:06;;;;;;;6.65;4.70;;;13.80;75.50;;;;;;5050425;28;20020;-69
2024/02/11 07:15:35;;;;;;;9.20;4.90;;;13.80;75.80;;;;;;5059388;28;20442;-68
2024/02/11 07:18:02;;;;;;;8.55;4.60;;;13.80;76.00;;;;;;5068108;28;20395;-70
2024/02/11 07:20:30;;;;;;;8.75;4.85;;;13.70;76.10;;;;;;5042627;28;20067;-69
2024/02/11 07:22:57;;;;;;;10.60;5.50;;;13.80;76.50;;;;;;5055653;28;20055;-72
2024/02/11 07:25:25;;;;;;;10.50;6.60;;;13.70;76.70;;;;;;5051422;28;20028;-71
2024/02/11 07:27:52;;;;;;;8.00;4.70;;;13.70;77.20;;;;;;5033777;28;20103;-71
2024/02/11 07:30:19;;;;;;;7.70;4.80;;;13.70;77.60;;;;;;5051244;28;20112;-71
2024/02/11 07:32:47;;;;;;;8.45;5.00;;;13.70;77.90;;;;;;5055134;28;20541;-71
2024/02/11 07:35:15;;;;;;;7.45;4.88;;;13.70;78.20;;;;;;5070963;28;20391;-70
2024/02/11 07:38:02;;;;;;;8.57;5.38;;;13.70;78.60;;;;;;5057060;28;20020;-69
2024/02/11 07:40:33;;;;;;;8.90;5.25;;;13.70;78.70;;;;;;5039099;28;20568;-71
2024/02/11 07:43:01;;;;;;;9.95;5.20;;;13.70;79.20;;;;;;5051302;28;20048;-70
2024/02/11 07:45:28;;;;;;;6.53;4.75;;;13.70;79.60;;;;;;5066251;28;20072;-69
2024/02/11 07:47:57;;;;;;;7.35;5.63;;;13.70;79.30;;;;;;5043337;28;20106;-70
2024/02/11 07:50:25;;;;;;;9.88;5.20;;;13.70;79.40;;;;;;5066356;28;20425;-70
2024/02/11 07:52:56;;;;;;;10.02;5.25;;;13.70;79.60;;;;;;5051216;28;20033;-71
2024/02/11 07:55:41;;;;;;;11.65;4.97;;;13.80;79.70;;;;;;5033000;28;20499;-70
2024/02/11 07:58:08;;;;;;;7.45;4.60;;;13.80;79.30;;;;;;5032519;28;20126;-70
2024/02/11 08:00:35;;;;;;;7.75;4.57;;;13.80;78.90;;;;;;5068003;28;20063;-72
2024/02/11 08:03:04;;;;;;;10.80;5.35;;;13.80;78.90;;;;;;5052662;28;20556;-71
2024/02/11 08:05:32;;;;;;;7.82;5.38;;;13.80;78.90;;;;;;5047904;28;20483;-71
2024/02/11 08:08:01;;;;;;;6.43;4.75;;;13.90;78.80;;;;;;5033319;28;20048;-70
2024/02/11 08:10:29;;;;;;;7.93;5.32;;;13.90;78.70;;;;;;5063493;28;20039;-72
2024/02/11 08:13:13;;;;;;;11.23;4.90;;;13.90;78.60;;;;;;5050426;28;20052;-71
2024/02/11 08:15:40;;;;;;;9.23;5.30;;;14.00;78.50;;;;;;5050465;28;20215;-71
2024/02/11 08:18:09;;;;;;;7.40;4.88;;;14.00;78.50;;;;;;5045482;28;20043;-70
2024/02/11 08:20:36;;;;;;;9.35;5.15;;;14.10;79.20;;;;;;5050266;28;20037;-70
2024/02/11 08:23:05;;;;;;;8.57;4.32;;;14.10;78.90;;;;;;5044562;28;20055;-69
2024/02/11 08:25:32;;;;;;;11.73;5.35;;;14.10;79.30;;;;;;5070392;28;20037;-70
2024/02/11 08:27:59;;;;;;;10.70;5.38;;;14.20;79.40;;;;;;5063680;28;20039;-70
2024/02/11 08:30:27;;;;;;;7.63;4.82;;;14.10;79.80;;;;;;5066509;28;20024;-72
2024/02/11 08:32:54;;;;;;;13.55;5.85;;;14.10;80.00;;;;;;5050795;28;20403;-69
2024/02/11 08:35:22;;;;;;;11.05;5.45;;;14.20;80.00;;;;;;5071520;28;20036;-69
2024/02/11 08:37:49;;;;;;;11.75;5.50;;;14.30;80.00;;;;;;5049928;28;20596;-69
2024/02/11 08:40:17;;;;;;;11.20;5.85;;;14.40;81.10;;;;;;5067949;28;20082;-70
2024/02/11 08:42:44;;;;;;;10.52;5.43;;;14.30;81.00;;;;;;5071110;28;20042;-69
2024/02/11 08:45:12;;;;;;;16.73;5.72;;;14.30;81.00;;;;;;5071365;28;20381;-71
2024/02/11 08:47:39;;;;;;;11.98;5.90;;;14.40;81.10;;;;;;5080296;28;20048;-69
2024/02/11 08:50:10;;;;;;;10.02;5.35;;;14.30;81.10;;;;;;5041125;28;20064;-69
2024/02/11 08:52:39;;;;;;;11.20;6.13;;;14.40;81.30;;;;;;5057552;28;20037;-68
2024/02/11 08:55:07;;;;;;;10.18;7.07;;;14.40;82.10;;;;;;5070997;28;20365;-69
2024/02/11 08:57:34;;;;;;;12.52;5.32;;;14.70;81.40;;;;;;5067751;28;20128;-69
2024/02/11 09:00:02;;;;;;;10.38;5.40;;;14.40;81.70;;;;;;5068054;28;20029;-68
2024/02/11 09:02:30;;;;;;;14.95;7.82;;;14.30;82.40;;;;;;5064531;28;20033;-70
2024/02/11 09:04:59;;;;;;;13.43;7.80;;;14.40;82.50;;;;;;5068149;28;20029;-70
2024/02/11 09:07:28;;;;;;;11.85;7.00;;;14.50;82.20;;;;;;5053827;28;20043;-68
2024/02/11 09:09:55;;;;;;;14.95;7.75;;;14.50;82.10;;;;;;5062979;28;20062;-69
2024/02/11 09:12:23;;;;;;;11.55;5.55;;;14.60;82.10;;;;;;5067772;28;20079;-71
2024/02/11 09:14:50;;;;;;;9.40;5.28;;;14.60;82.30;;;;;;5045543;28;20041;-72
2024/02/11 09:17:17;;;;;;;8.50;5.40;;;14.50;82.60;;;;;;5066043;28;20025;-72
2024/02/11 09:19:45;;;;;;;12.75;5.53;;;14.50;82.90;;;;;;5066779;28;20040;-71
2024/02/11 09:22:12;;;;;;;10.10;5.15;;;14.40;83.00;;;;;;5070423;28;20052;-70
2024/02/11 09:24:41;;;;;;;7.55;4.93;;;14.40;82.90;;;;;;5064792;28;20037;-71
2024/02/11 09:27:10;;;;;;;7.50;5.28;;;14.40;82.90;;;;;;5032568;28;20067;-68
2024/02/11 09:29:38;;;;;;;9.65;5.57;;;14.40;83.00;;;;;;5067445;28;20119;-71
2024/02/11 09:32:06;;;;;;;10.85;5.65;;;14.30;83.00;;;;;;5065266;28;20033;-69
2024/02/11 09:34:34;;;;;;;10.00;5.70;;;14.20;83.30;;;;;;5077043;28;20068;-69
2024/02/11 09:37:03;;;;;;;11.27;6.15;;;14.20;83.50;;;;;;5050951;28;20062;-70
2024/02/11 09:39:31;;;;;;;9.98;5.78;;;14.30;83.70;;;;;;5038912;28;20517;-70
2024/02/11 09:41:58;;;;;;;11.30;5.85;;;14.30;83.80;;;;;;5069516;28;20060;-70
2024/02/11 09:44:28;;;;;;;7.95;5.07;;;14.40;83.70;;;;;;5056249;28;20347;-70
2024/02/11 09:46:59;;;;;;;9.80;5.90;;;14.50;83.60;;;;;;5079393;28;20036;-71
2024/02/11 09:49:28;;;;;;;9.88;5.13;;;14.50;83.70;;;;;;5065222;28;20033;-71
2024/02/11 09:52:00;;;;;;;10.70;5.65;;;14.60;83.00;;;;;;5084906;28;20040;-69
2024/02/11 09:54:32;;;;;;;18.02;4.68;;;14.60;82.90;;;;;;5068562;28;20040;-72
2024/02/11 09:57:00;;;;;;;9.15;5.07;;;14.60;82.80;;;;;;5066256;28;20392;-70
2024/02/11 09:59:27;;;;;;;6.88;4.43;;;14.60;83.00;;;;;;5068835;28;20472;-74
2024/02/11 10:01:56;;;;;;;10.80;5.20;;;14.60;83.00;;;;;;5070328;28;20045;-71
2024/02/11 10:04:30;;;;;;;8.23;5.20;;;14.60;83.10;;;;;;5068202;28;20154;-71
2024/02/11 10:07:01;;;;;;;8.43;5.05;;;14.60;83.10;;;;;;5056672;28;20040;-71
2024/02/11 10:09:28;;;;;;;8.13;4.30;;;14.60;82.90;;;;;;5057764;28;20483;-72
2024/02/11 10:11:56;;;;;;;11.57;6.15;;;14.60;82.70;;;;;;5066324;28;20103;-71
2024/02/11 10:14:29;;;;;;;42.33;23.73;;;14.60;83.80;;;;;;5061245;28;20032;-71
2024/02/11 10:16:59;;;;;;;11.68;5.80;;;15.00;82.60;;;;;;5037557;28;20029;-70
2024/02/11 10:19:28;;;;;;;8.85;5.25;;;14.80;82.10;;;;;;5059421;28;20498;-72
2024/02/11 10:21:59;;;;;;;14.38;5.10;;;14.70;83.10;;;;;;5069064;28;20198;-71
2024/02/11 10:24:49;;;;;;;39.30;21.50;;;14.70;83.80;;;;;;5063762;28;20036;-71
2024/02/11 10:27:17;;;;;;;12.55;6.00;;;14.90;82.90;;;;;;5063099;28;20033;-69
2024/02/11 10:29:46;;;;;;;10.35;5.03;;;14.80;82.80;;;;;;5048620;28;20115;-69
2024/02/11 10:32:14;;;;;;;7.55;4.38;;;14.60;83.50;;;;;;5067293;28;20424;-71
2024/02/11 10:34:43;;;;;;;9.70;5.43;;;14.50;84.00;;;;;;5070276;28;20033;-70
2024/02/11 10:37:12;;;;;;;11.32;5.40;;;14.40;84.80;;;;;;5055332;28;20380;-69
2024/02/11 10:39:41;;;;;;;9.73;5.50;;;14.30;86.20;;;;;;5064366;28;20044;-69
2024/02/11 10:42:08;;;;;;;12.30;5.35;;;14.20;88.00;;;;;;5049252;28;20036;-71
2024/02/11 10:44:38;;;;;;;9.10;5.55;;;14.10;88.90;;;;;;5061873;28;20040;-72
2024/02/11 10:47:09;;;;;;;11.93;6.13;;;14.10;89.40;;;;;;5074661;28;20059;-71
2024/02/11 10:49:37;;;;;;;9.23;5.65;;;13.60;90.60;;;;;;5063935;28;20039;-72
2024/02/11 10:52:11;;;;;;;12.15;5.95;;;13.20;90.20;;;;;;5062625;28;20055;-72
2024/02/11 10:54:43;;;;;;;14.35;6.88;;;12.90;91.10;;;;;;5042328;28;20555;-71
2024/02/11 10:57:12;;;;;;;10.48;6.35;;;12.50;92.20;;;;;;5069562;28;20388;-71
2024/02/11 10:59:51;;;;;;;14.85;7.97;;;12.70;92.40;;;;;;5070110;28;20054;-70
2024/02/11 11:02:19;;;;;;;11.60;7.50;;;13.00;92.20;;;;;;5061541;28;20036;-69
2024/02/11 11:04:49;;;;;;;11.00;6.88;;;12.60;93.70;;;;;;5061154;28;20420;-69
2024/02/11 11:07:19;;;;;;;13.63;7.55;;;12.70;93.40;;;;;;5068566;28;20033;-73
2024/02/11 11:09:46;;;;;;;11.35;7.15;;;12.50;94.80;;;;;;5071057;28;20416;-70
2024/02/11 11:12:17;;;;;;;11.30;7.43;;;12.80;94.00;;;;;;5067232;28;20029;-69
2024/02/11 11:14:45;;;;;;;17.63;8.55;;;12.80;94.30;;;;;;5067472;28;20472;-70
2024/02/11 11:17:20;;;;;;;11.98;8.77;;;12.80;94.60;;;;;;5071702;28;20036;-71
2024/02/11 11:19:56;;;;;;;17.13;9.65;;;12.90;94.50;;;;;;5037226;28;20037;-71
2024/02/11 11:22:28;;;;;;;12.40;8.90;;;12.60;95.60;;;;;;5049578;28;21043;-69
2024/02/11 11:24:56;;;;;;;17.63;9.43;;;12.30;96.60;;;;;;5057770;28;20432;-69
2024/02/11 11:27:24;;;;;;;13.65;9.20;;;12.70;96.50;;;;;;5060458;28;20037;-69
2024/02/11 11:29:54;;;;;;;18.52;10.18;;;12.80;96.10;;;;;;5057217;28;20059;-70
2024/02/11 11:32:22;;;;;;;14.70;10.57;;;12.60;96.70;;;;;;5061740;28;20383;-72
2024/02/11 11:34:51;;;;;;;22.42;11.27;;;12.10;98.70;;;;;;5056395;28;20045;-71
2024/02/11 11:37:18;;;;;;;18.67;11.73;;;12.20;98.60;;;;;;5062043;28;20058;-72
2024/02/11 11:39:46;;;;;;;16.75;9.90;;;11.90;99.70;;;;;;5063289;28;20143;-73
2024/02/11 11:42:14;;;;;;;17.27;9.88;;;11.90;99.90;;;;;;5063091;28;20518;-72
2024/02/11 11:44:45;;;;;;;15.32;9.77;;;11.70;99.90;;;;;;5073498;28;20044;-71
2024/02/11 11:47:13;;;;;;;12.90;9.43;;;11.60;99.90;;;;;;5055010;28;20376;-69
2024/02/11 11:49:41;;;;;;;21.52;13.82;;;11.80;99.90;;;;;;5068390;28;20503;-69
2024/02/11 11:52:09;;;;;;;16.95;9.20;;;11.90;99.90;;;;;;5065167;28;20377;-72
2024/02/11 11:54:37;;;;;;;25.55;14.63;;;11.60;99.90;;;;;;5068895;28;20036;-72
2024/02/11 11:57:08;;;;;;;27.55;14.95;;;11.50;99.90;;;;;;5056855;28;20049;-72
2024/02/11 11:59:35;;;;;;;36.05;22.77;;;11.70;99.90;;;;;;5039478;28;20037;-70
2024/02/11 12:02:03;;;;;;;179.30;98.13;;;11.90;99.90;;;;;;5046610;28;20448;-73
2024/02/11 12:04:36;;;;;;;17.20;13.25;;;12.20;99.90;;;;;;5052752;28;20390;-72
2024/02/11 12:07:06;;;;;;;17.13;10.35;;;12.20;99.90;;;;;;5033793;28;20388;-69
2024/02/11 12:09:33;;;;;;;18.77;11.60;;;12.20;99.90;;;;;;5049721;28;20044;-72
2024/02/11 12:12:01;;;;;;;12.85;8.52;;;12.20;99.90;;;;;;5047098;28;20386;-77
2024/02/11 12:14:29;;;;;;;19.23;8.50;;;12.00;99.90;;;;;;5028440;28;20037;-71
2024/02/11 12:16:57;;;;;;;9.07;7.50;;;12.00;99.90;;;;;;5048626;28;20044;-71
2024/02/11 12:19:25;;;;;;;17.92;8.35;;;11.90;99.90;;;;;;5049216;28;20464;-72
2024/02/11 12:21:52;;;;;;;12.65;8.00;;;11.80;99.90;;;;;;5047355;28;20068;-71
2024/02/11 12:24:21;;;;;;;15.52;9.77;;;11.30;99.90;;;;;;5051951;28;20384;-70
2024/02/11 12:26:49;;;;;;;23.27;11.20;;;11.10;99.90;;;;;;5049132;28;20041;-73
2024/02/11 12:29:23;;;;;;;15.52;10.27;;;11.00;99.90;;;;;;5052366;28;20043;-73
2024/02/11 12:31:52;;;;;;;16.80;9.63;;;11.00;99.90;;;;;;5045783;28;20040;-72
2024/02/11 12:34:23;;;;;;;14.13;9.57;;;11.00;99.90;;;;;;5050478;28;20116;-72
2024/02/11 12:37:03;;;;;;;12.60;8.77;;;11.00;99.90;;;;;;5050824;28;20040;-75
2024/02/11 12:39:31;;;;;;;13.82;9.63;;;11.00;99.90;;;;;;5050719;28;20037;-75
2024/02/11 12:41:59;;;;;;;12.65;9.32;;;11.20;99.90;;;;;;5053772;28;20037;-75
2024/02/11 12:44:27;;;;;;;15.65;10.70;;;11.30;99.90;;;;;;5052114;28;20064;-72
2024/02/11 12:46:54;;;;;;;16.63;10.93;;;11.40;99.90;;;;;;5044596;28;20048;-71
2024/02/11 12:49:39;;;;;;;17.67;10.38;;;11.50;99.90;;;;;;5042361;28;20029;-74
2024/02/11 12:52:07;;;;;;;13.82;10.35;;;11.80;99.90;;;;;;5043346;28;20060;-73